Time;durP1;ratioP1;P1;durP2;ratioP2;P2;SDS_P1;SDS_P2;PMS_P1;PMS_P2;Temp;Humidity;BMP_temperature;BMP_pressure;BME280_temperature;BME280_humidity;BME280_pressure;Samples;Min_cycle;Max_cycle;Signal;HPM_P1;HPM_P2
2022/12/02 00:00:14;;;;;;;20.30;9.73;;;;;;;7.60;83.03;101870.31;4949091;29;20066;-46
2022/12/02 00:02:41;;;;;;;20.50;10.00;;;;;;;7.63;83.04;101864.22;4948410;29;20055;-47
2022/12/02 00:05:14;;;;;;;18.52;8.63;;;;;;;7.67;82.99;101872.72;4916528;29;20051;-48
2022/12/02 00:07:44;;;;;;;15.60;8.73;;;;;;;7.70;83.25;101875.72;4949015;29;20058;-46
2022/12/02 00:10:31;;;;;;;15.65;9.30;;;;;;;7.73;83.18;101869.56;4931986;29;20393;-50
2022/12/02 00:13:10;;;;;;;15.38;8.07;;;;;;;7.75;83.28;101861.84;4949235;29;20066;-48
2022/12/02 00:15:43;;;;;;;18.70;7.50;;;;;;;7.76;83.30;101851.63;4949076;29;20047;-48
2022/12/02 00:18:12;;;;;;;15.57;8.15;;;;;;;7.78;83.31;101857.69;4930670;29;20074;-46
2022/12/02 00:20:39;;;;;;;13.98;7.93;;;;;;;7.80;83.37;101855.44;4949021;29;20069;-49
2022/12/02 00:23:06;;;;;;;23.55;9.50;;;;;;;7.81;83.38;101855.13;4948419;29;20043;-51
2022/12/02 00:25:33;;;;;;;17.13;7.70;;;;;;;7.82;83.47;101856.75;4931507;29;20609;-45
2022/12/02 00:28:01;;;;;;;10.75;6.10;;;;;;;7.82;83.55;101850.44;4947575;29;20053;-46
2022/12/02 00:30:28;;;;;;;14.82;8.02;;;;;;;7.83;83.67;101852.06;4949350;29;20111;-48
2022/12/02 00:32:54;;;;;;;10.20;6.47;;;;;;;7.84;83.72;101854.53;4948399;29;20047;-45
2022/12/02 00:35:23;;;;;;;10.30;6.60;;;;;;;7.86;83.66;101849.53;4949083;29;20047;-47
2022/12/02 00:37:50;;;;;;;13.13;7.30;;;;;;;7.87;83.64;101853.94;4948752;29;20410;-45
2022/12/02 00:40:17;;;;;;;12.77;6.90;;;;;;;7.88;83.67;101855.56;4948543;29;20058;-47
2022/12/02 00:42:44;;;;;;;13.40;7.63;;;;;;;7.88;83.81;101847.31;4950629;28;20054;-46
2022/12/02 00:47:57;;;;;;;15.32;7.38;;;;;;;7.89;83.86;101851.69;4952825;29;20039;-49
2022/12/02 00:50:24;;;;;;;10.77;6.78;;;;;;;7.90;83.83;101847.00;4952491;29;20494;-46
2022/12/02 00:52:51;;;;;;;15.50;7.00;;;;;;;7.91;83.93;101849.47;4919800;29;20043;-47
2022/12/02 00:55:17;;;;;;;16.92;6.60;;;;;;;7.90;83.85;101850.56;4951258;29;20046;-46
2022/12/02 00:57:44;;;;;;;10.65;6.82;;;;;;;7.87;84.01;101853.94;4952422;29;20054;-46
2022/12/02 01:00:11;;;;;;;15.38;8.13;;;;;;;7.83;83.78;101844.63;4952299;29;20047;-45
2022/12/02 01:02:38;;;;;;;11.60;6.82;;;;;;;7.77;83.91;101837.56;4934701;29;20051;-47
2022/12/02 01:05:05;;;;;;;15.88;6.90;;;;;;;7.73;83.94;101830.97;4952117;29;20616;-46
2022/12/02 01:07:35;;;;;;;17.85;7.25;;;;;;;7.70;84.02;101833.53;4951679;29;20043;-47
2022/12/02 01:10:02;;;;;;;9.32;5.78;;;;;;;7.69;84.21;101838.22;4952356;29;20150;-46
2022/12/02 01:12:29;;;;;;;13.32;6.70;;;;;;;7.68;84.30;101831.06;4953723;29;20061;-45
2022/12/02 01:14:56;;;;;;;18.38;6.55;;;;;;;7.68;84.20;101833.81;4952277;29;20505;-46
2022/12/02 01:17:22;;;;;;;13.18;6.63;;;;;;;7.67;84.34;101832.22;4952139;29;20046;-46
2022/12/02 01:19:49;;;;;;;11.75;6.63;;;;;;;7.68;84.36;101833.81;4952250;29;20047;-50
2022/12/02 01:22:16;;;;;;;11.93;5.97;;;;;;;7.70;84.53;101830.78;4950756;29;20052;-48
2022/12/02 01:24:42;;;;;;;12.63;5.25;;;;;;;7.72;84.52;101829.38;4934199;29;20055;-45
2022/12/02 01:27:09;;;;;;;16.50;6.63;;;;;;;7.72;84.53;101828.53;4951165;29;20511;-45
2022/12/02 01:29:36;;;;;;;9.20;5.50;;;;;;;7.70;84.62;101831.63;4951952;29;20050;-47
2022/12/02 01:32:02;;;;;;;11.05;5.63;;;;;;;7.69;84.61;101826.38;4950263;29;20597;-45
2022/12/02 01:34:29;;;;;;;13.07;4.95;;;;;;;7.69;84.67;101823.63;4951805;29;20047;-46
2022/12/02 01:36:56;;;;;;;12.65;5.40;;;;;;;7.69;84.76;101824.44;4951557;29;20050;-51
2022/12/02 01:39:22;;;;;;;10.10;5.47;;;;;;;7.70;84.77;101823.34;4951847;29;20055;-46
2022/12/02 01:41:52;;;;;;;7.85;4.70;;;;;;;7.71;84.86;101824.97;4951624;29;20051;-46
2022/12/02 01:44:18;;;;;;;21.65;5.80;;;;;;;7.72;84.86;101823.84;4951334;29;20067;-47
2022/12/02 01:46:45;;;;;;;13.13;6.22;;;;;;;7.72;84.84;101823.84;4951430;29;20051;-49
2022/12/02 01:49:12;;;;;;;13.77;6.20;;;;;;;7.74;84.88;101821.59;4950343;29;20046;-49
2022/12/02 01:51:38;;;;;;;11.00;4.85;;;;;;;7.75;84.86;101830.69;4951631;29;20075;-47
2022/12/02 01:54:05;;;;;;;20.02;6.30;;;;;;;7.75;85.04;101828.78;4949953;28;20520;-46
2022/12/02 01:56:32;;;;;;;10.95;4.85;;;;;;;7.74;85.04;101824.38;4951055;29;20066;-47
2022/12/02 01:58:59;;;;;;;7.18;5.15;;;;;;;7.73;85.06;101814.44;4951151;29;20062;-46
2022/12/02 02:01:31;;;;;;;12.38;5.25;;;;;;;7.74;85.23;101821.59;4951194;29;20059;-46
2022/12/02 02:03:59;;;;;;;10.63;4.30;;;;;;;7.74;85.16;101815.28;4950729;29;20047;-47
2022/12/02 02:06:29;;;;;;;12.30;4.28;;;;;;;7.75;85.32;101812.22;4950986;29;20082;-48
2022/12/02 02:08:57;;;;;;;8.80;4.80;;;;;;;7.75;85.31;101814.16;4950994;29;20055;-46
2022/12/02 02:11:24;;;;;;;8.27;4.47;;;;;;;7.75;85.38;101812.22;4951202;29;20457;-51
2022/12/02 02:13:51;;;;;;;7.75;4.90;;;;;;;7.77;85.55;101815.50;4951612;29;20118;-46
2022/12/02 02:16:18;;;;;;;9.90;4.93;;;;;;;7.78;85.58;101813.56;4950841;29;20130;-46
2022/12/02 02:18:45;;;;;;;10.38;5.05;;;;;;;7.78;85.73;101816.31;4950975;29;20051;-47
2022/12/02 02:21:20;;;;;;;7.88;4.63;;;;;;;7.77;85.81;101812.75;4949715;29;20055;-49
2022/12/02 02:23:47;;;;;;;8.93;5.28;;;;;;;7.77;85.80;101815.50;4933907;29;20397;-45
2022/12/02 02:26:14;;;;;;;12.05;4.32;;;;;;;7.77;85.95;101815.50;4950318;29;20055;-47
2022/12/02 02:28:41;;;;;;;17.90;9.00;;;;;;;7.75;85.96;101808.66;4950820;29;20035;-47
2022/12/02 02:31:08;;;;;;;20.92;9.20;;;;;;;7.74;86.21;101809.75;4950848;29;20058;-51
2022/12/02 02:33:35;;;;;;;18.13;9.10;;;;;;;7.73;86.02;101808.13;4950911;29;20047;-47
2022/12/02 02:36:03;;;;;;;30.63;10.88;;;;;;;7.72;86.41;101806.50;4950582;29;20059;-45
2022/12/02 02:38:30;;;;;;;32.67;14.88;;;;;;;7.71;86.48;101800.16;4950193;29;20684;-50
2022/12/02 02:40:58;;;;;;;21.17;9.90;;;;;;;7.68;86.61;101806.25;4950686;29;20043;-45
2022/12/02 02:43:27;;;;;;;17.42;10.43;;;;;;;7.66;86.64;101803.00;4950730;29;20036;-52
2022/12/02 02:45:55;;;;;;;16.20;6.40;;;;;;;7.65;86.91;101795.84;4950603;29;20058;-45
2022/12/02 02:48:22;;;;;;;34.75;17.15;;;;;;;7.67;87.05;101795.56;4950288;29;20102;-54
2022/12/02 02:50:49;;;;;;;33.17;16.08;;;;;;;7.68;86.95;101809.00;4949391;29;20055;-48
2022/12/02 02:53:19;;;;;;;49.45;20.63;;;;;;;7.67;87.05;101793.63;4950464;29;20047;-48
2022/12/02 02:55:46;;;;;;;43.50;21.60;;;;;;;7.68;87.07;101800.75;4949401;29;20047;-46
2022/12/02 02:58:13;;;;;;;32.85;13.70;;;;;;;7.69;87.16;101802.41;4950252;29;20074;-45
2022/12/02 03:00:43;;;;;;;16.20;9.68;;;;;;;7.70;87.15;101797.72;4957044;23;20969;-47
2022/12/02 03:03:13;;;;;;;16.05;7.72;;;;;;;7.70;87.26;101794.97;4948584;29;20167;-45
2022/12/02 03:05:40;;;;;;;17.73;7.30;;;;;;;7.72;87.48;101796.28;4949978;28;20043;-45
2022/12/02 03:08:08;;;;;;;22.05;9.77;;;;;;;7.72;87.39;101795.47;4950002;29;20134;-46
2022/12/02 03:10:35;;;;;;;16.20;8.30;;;;;;;7.72;87.50;101807.31;4949979;29;20039;-48
2022/12/02 03:13:02;;;;;;;17.90;7.78;;;;;;;7.71;87.55;101791.88;4949902;29;20049;-47
2022/12/02 03:15:29;;;;;;;21.38;8.63;;;;;;;7.71;87.60;101793.81;4950358;29;20058;-45
2022/12/02 03:17:56;;;;;;;13.13;6.75;;;;;;;7.70;87.74;101797.72;4949832;29;20051;-45
2022/12/02 03:20:24;;;;;;;16.92;7.03;;;;;;;7.69;87.72;101794.13;4949285;29;20047;-46
2022/12/02 03:22:51;;;;;;;11.23;6.45;;;;;;;7.68;87.58;101795.25;4949924;29;20054;-45
2022/12/02 03:25:18;;;;;;;14.27;6.25;;;;;;;7.68;87.83;101789.72;4945301;29;20457;-46
2022/12/02 03:27:45;;;;;;;12.65;6.88;;;;;;;7.64;87.85;101796.97;4949992;29;20520;-53
2022/12/02 03:30:12;;;;;;;12.13;5.72;;;;;;;7.61;87.87;101786.53;4949465;29;20043;-50
2022/12/02 03:32:44;;;;;;;11.93;6.03;;;;;;;7.61;88.01;101774.69;4950336;29;20055;-45
2022/12/02 03:35:11;;;;;;;9.05;5.05;;;;;;;7.58;87.89;101789.91;4950093;29;20093;-45
2022/12/02 03:37:38;;;;;;;10.13;6.00;;;;;;;7.52;87.86;101785.56;4949630;29;20153;-45
2022/12/02 03:40:05;;;;;;;12.43;5.55;;;;;;;7.51;88.01;101783.94;4936322;29;20035;-47
2022/12/02 03:42:32;;;;;;;7.97;5.13;;;;;;;7.48;87.97;101784.53;4949596;29;20054;-48
2022/12/02 03:45:00;;;;;;;10.70;5.13;;;;;;;7.47;88.04;101782.06;4948759;29;20050;-45
2022/12/02 03:47:28;;;;;;;10.40;5.13;;;;;;;7.44;88.18;101786.25;4949288;29;20039;-46
2022/12/02 03:49:56;;;;;;;10.55;4.95;;;;;;;7.42;88.07;101779.41;4949533;29;20051;-48
2022/12/02 03:52:24;;;;;;;11.50;5.18;;;;;;;7.37;88.04;101777.56;4949289;29;20043;-47
2022/12/02 03:54:51;;;;;;;11.50;4.82;;;;;;;7.31;88.06;101779.56;4949368;29;20055;-48
2022/12/02 03:57:21;;;;;;;10.48;4.97;;;;;;;7.27;88.07;101775.78;4949174;29;20497;-46
2022/12/02 03:59:47;;;;;;;16.55;5.85;;;;;;;7.22;88.16;101775.03;4949109;29;20054;-45
2022/12/02 04:02:14;;;;;;;13.82;5.63;;;;;;;7.19;88.19;101775.63;4949115;29;20059;-47
2022/12/02 04:04:41;;;;;;;13.90;7.15;;;;;;;7.13;88.17;101779.56;4949803;29;20049;-52
2022/12/02 04:07:08;;;;;;;10.45;5.68;;;;;;;7.10;88.34;101782.91;4950360;29;20071;-48
2022/12/02 04:09:34;;;;;;;11.45;5.07;;;;;;;7.08;88.23;101783.22;4948680;29;20044;-49
2022/12/02 04:12:01;;;;;;;16.92;4.72;;;;;;;7.08;88.40;101774.13;4949354;29;20560;-50
2022/12/02 04:14:29;;;;;;;10.57;5.53;;;;;;;7.07;88.34;101778.00;4948108;29;20047;-47
2022/12/02 04:16:55;;;;;;;10.00;4.47;;;;;;;7.06;88.52;101770.84;4948241;28;20047;-47
2022/12/02 04:19:22;;;;;;;11.93;6.10;;;;;;;7.03;88.55;101766.75;4948978;29;20074;-46
2022/12/02 04:21:49;;;;;;;12.90;5.50;;;;;;;7.03;88.46;101765.94;4948405;29;20405;-47
2022/12/02 04:24:16;;;;;;;13.38;5.50;;;;;;;7.00;88.48;101767.34;4944210;28;20040;-48
2022/12/02 04:26:42;;;;;;;11.90;5.68;;;;;;;6.97;88.60;101769.88;4945413;29;20142;-55
2022/12/02 04:29:09;;;;;;;12.02;6.28;;;;;;;6.95;88.60;101766.59;4938609;28;20106;-50
2022/12/02 04:31:36;;;;;;;8.13;5.30;;;;;;;6.91;88.62;101768.31;4948794;29;20687;-47
2022/12/02 04:34:03;;;;;;;15.30;6.30;;;;;;;6.87;88.73;101768.09;4949101;29;20047;-46
2022/12/02 04:36:29;;;;;;;15.43;5.93;;;;;;;6.86;88.81;101771.13;4948775;29;20050;-45
2022/12/02 04:38:56;;;;;;;6.80;4.25;;;;;;;6.85;88.97;101763.97;4948569;29;20047;-49
2022/12/02 04:41:23;;;;;;;7.60;4.68;;;;;;;6.83;88.89;101774.47;4949677;29;20460;-46
2022/12/02 04:43:49;;;;;;;10.45;4.88;;;;;;;6.79;89.05;101763.22;4931867;29;20162;-50
2022/12/02 04:46:16;;;;;;;12.25;6.05;;;;;;;6.74;89.32;101769.63;4939464;29;20138;-48
2022/12/02 04:48:43;;;;;;;13.57;5.70;;;;;;;6.74;89.12;101769.63;4948844;29;20061;-51
2022/12/02 04:51:10;;;;;;;6.65;4.75;;;;;;;6.72;89.09;101771.84;4948820;29;20460;-45
2022/12/02 04:53:36;;;;;;;8.98;4.63;;;;;;;6.70;88.80;101768.56;4948470;29;20047;-47
2022/12/02 04:56:03;;;;;;;12.02;4.40;;;;;;;6.66;89.20;101773.03;4945556;29;20055;-49
2022/12/02 04:58:30;;;;;;;11.18;5.40;;;;;;;6.63;89.18;101773.63;4948775;29;20058;-51
2022/12/02 05:00:57;;;;;;;7.55;4.47;;;;;;;6.66;89.44;101761.19;4948300;29;20050;-46
2022/12/02 05:03:23;;;;;;;8.23;4.38;;;;;;;6.65;89.33;101765.88;4944746;29;20058;-45
2022/12/02 05:05:50;;;;;;;12.45;4.63;;;;;;;6.65;89.28;101765.06;4948342;29;20405;-46
2022/12/02 05:08:17;;;;;;;9.13;4.15;;;;;;;6.62;89.25;101760.97;4948843;28;20111;-47
2022/12/02 05:10:44;;;;;;;8.55;4.13;;;;;;;6.58;89.36;101765.44;4948739;29;20043;-46
2022/12/02 05:13:10;;;;;;;11.85;4.82;;;;;;;6.54;89.48;101758.06;4948107;29;20141;-47
2022/12/02 05:15:37;;;;;;;9.15;4.07;;;;;;;6.50;89.54;101760.56;4947606;29;20050;-46
2022/12/02 05:18:04;;;;;;;7.95;4.20;;;;;;;6.50;89.66;101757.81;4948673;29;20538;-49
2022/12/02 05:20:31;;;;;;;8.32;4.00;;;;;;;6.51;89.65;101764.16;4948405;29;20126;-46
2022/12/02 05:22:58;;;;;;;5.07;3.25;;;;;;;6.47;89.51;101766.66;4948454;29;20154;-47
2022/12/02 05:25:24;;;;;;;5.47;3.35;;;;;;;6.46;89.56;101781.50;4948224;28;20429;-45
2022/12/02 05:27:51;;;;;;;5.95;3.45;;;;;;;6.43;89.80;101773.88;4948377;28;20044;-50
2022/12/02 05:30:18;;;;;;;8.50;4.15;;;;;;;6.44;89.65;101758.97;4951486;29;20485;-45
2022/12/02 05:32:44;;;;;;;6.40;3.72;;;;;;;6.44;89.59;101775.50;4950924;29;20652;-46
2022/12/02 05:35:11;;;;;;;13.35;4.07;;;;;;;6.41;89.93;101769.75;4952051;29;20050;-49
2022/12/02 05:37:37;;;;;;;7.50;4.10;;;;;;;6.39;89.74;101777.47;4952073;29;20142;-49
2022/12/02 05:40:05;;;;;;;7.38;4.22;;;;;;;6.34;89.78;101772.84;4939153;29;20075;-45
2022/12/02 05:42:33;;;;;;;11.05;5.05;;;;;;;6.35;89.84;101776.44;4951682;29;20402;-45
2022/12/02 05:45:05;;;;;;;9.65;5.07;;;;;;;6.33;89.88;101779.44;4951748;28;20059;-51
2022/12/02 05:47:34;;;;;;;20.30;6.22;;;;;;;6.33;89.96;101782.19;4951671;28;20051;-49
2022/12/02 05:50:00;;;;;;;12.48;4.70;;;;;;;6.31;89.81;101783.59;4951602;29;20130;-46
2022/12/02 05:52:29;;;;;;;7.63;4.20;;;;;;;6.29;90.07;101789.41;4951196;29;20721;-51
2022/12/02 05:54:58;;;;;;;12.05;5.43;;;;;;;6.28;89.94;101782.25;4950703;28;20055;-45
2022/12/02 05:57:28;;;;;;;10.70;5.20;;;;;;;6.27;90.11;101788.06;4944080;29;20051;-46
2022/12/02 06:00:09;;;;;;;8.98;4.47;;;;;;;6.25;90.08;101779.28;4934190;29;20058;-52
2022/12/02 06:02:42;;;;;;;7.25;4.20;;;;;;;6.22;90.04;101785.38;4950771;29;20059;-46
2022/12/02 06:05:21;;;;;;;8.75;4.93;;;;;;;6.21;90.28;101798.28;4951371;29;20043;-45
2022/12/02 06:07:52;;;;;;;10.40;4.72;;;;;;;6.21;90.00;101787.28;4951002;29;20058;-49
2022/12/02 06:10:30;;;;;;;6.13;4.40;;;;;;;6.21;90.02;101792.78;4951367;29;20126;-48
2022/12/02 06:13:03;;;;;;;8.18;4.30;;;;;;;6.19;90.04;101789.53;4951459;29;20100;-46
2022/12/02 06:15:35;;;;;;;8.95;4.93;;;;;;;6.12;90.12;101789.84;4934141;29;20519;-46
2022/12/02 06:18:26;;;;;;;6.10;4.03;;;;;;;6.13;90.34;101790.69;4951117;28;20051;-48
2022/12/02 06:20:56;;;;;;;9.55;6.10;;;;;;;6.11;90.16;101801.16;4950827;29;20062;-46
2022/12/02 06:23:25;;;;;;;10.80;5.63;;;;;;;6.08;90.43;101796.22;4950650;28;20110;-45
2022/12/02 06:25:53;;;;;;;9.43;5.35;;;;;;;6.08;90.30;101794.31;4933938;29;20062;-45
2022/12/02 06:28:36;;;;;;;10.77;4.80;;;;;;;6.08;90.63;101801.72;4950178;29;20457;-48
2022/12/02 06:31:15;;;;;;;8.50;5.50;;;;;;;6.07;90.64;101802.81;4950891;29;20046;-47
2022/12/02 06:33:44;;;;;;;8.52;4.35;;;;;;;6.05;90.38;101810.53;4950700;29;20047;-46
2022/12/02 06:36:14;;;;;;;9.65;5.07;;;;;;;6.04;90.53;101803.41;4950613;29;20055;-54
2022/12/02 06:38:57;;;;;;;6.78;4.57;;;;;;;6.00;90.49;101805.09;4950826;29;20039;-47
2022/12/02 06:41:27;;;;;;;7.72;3.90;;;;;;;5.99;90.43;101803.44;4950444;29;20055;-51
2022/12/02 06:46:42;;;;;;;6.30;3.85;;;;;;;6.00;90.66;101807.84;4951061;29;20057;-54
2022/12/02 06:49:20;;;;;;;7.53;3.60;;;;;;;6.01;90.72;101806.75;4950487;29;20043;-46
2022/12/02 06:51:57;;;;;;;6.43;3.47;;;;;;;5.97;90.31;101805.66;4950579;29;20043;-45
2022/12/02 06:54:28;;;;;;;8.68;3.58;;;;;;;5.92;90.63;101808.47;4947038;29;20051;-45
2022/12/02 06:56:57;;;;;;;7.20;4.13;;;;;;;5.93;90.68;101808.16;4932343;29;20047;-46
2022/12/02 06:59:24;;;;;;;5.80;3.97;;;;;;;5.88;90.45;101815.63;4949158;28;20607;-47
2022/12/02 07:01:56;;;;;;;12.13;3.72;;;;;;;5.83;90.55;101801.91;4950087;29;20066;-46
2022/12/02 07:04:33;;;;;;;10.13;4.38;;;;;;;5.79;90.54;101809.09;4950339;29;20062;-47
2022/12/02 07:07:15;;;;;;;8.02;4.38;;;;;;;5.81;90.75;101809.63;4950098;29;20058;-45
2022/12/02 07:09:47;;;;;;;7.63;5.35;;;;;;;5.79;90.76;101806.34;4950070;29;20085;-45
2022/12/02 07:12:20;;;;;;;9.82;4.28;;;;;;;5.76;90.86;101818.75;4950506;29;20055;-50
2022/12/02 07:14:51;;;;;;;13.98;5.43;;;;;;;5.78;90.77;101812.94;4949975;29;20105;-47
2022/12/02 07:17:19;;;;;;;8.75;4.90;;;;;;;5.76;90.83;101828.91;4948863;29;20579;-48
2022/12/02 07:20:09;;;;;;;9.15;4.32;;;;;;;5.73;90.73;101829.47;4949795;29;20058;-45
2022/12/02 07:22:40;;;;;;;8.48;4.88;;;;;;;5.69;90.85;101822.91;4946540;29;20055;-47
2022/12/02 07:25:06;;;;;;;8.68;4.75;;;;;;;5.68;91.00;101833.09;4947102;29;20062;-45
2022/12/02 07:27:36;;;;;;;10.43;4.72;;;;;;;5.71;91.00;101831.69;4949866;29;20576;-46
2022/12/02 07:30:19;;;;;;;10.18;5.45;;;;;;;5.70;91.10;101835.53;4949365;29;20055;-47
2022/12/02 07:32:45;;;;;;;8.63;5.05;;;;;;;5.68;90.89;101835.84;4950203;29;20055;-47
2022/12/02 07:35:12;;;;;;;8.45;5.53;;;;;;;5.69;91.06;101842.16;4950369;29;20043;-49
2022/12/02 07:37:39;;;;;;;10.52;5.35;;;;;;;5.68;90.90;101843.25;4949870;29;20040;-47
2022/12/02 07:40:06;;;;;;;10.18;5.28;;;;;;;5.61;90.96;101842.75;4949450;29;20102;-46
2022/12/02 07:42:33;;;;;;;11.23;6.00;;;;;;;5.59;91.00;101839.50;4947243;29;20067;-46
2022/12/02 07:44:59;;;;;;;9.88;6.00;;;;;;;5.59;91.02;101847.72;4943254;29;20054;-46
2022/12/02 07:47:26;;;;;;;11.77;6.40;;;;;;;5.59;91.27;101844.97;4949483;29;20148;-47
2022/12/02 07:49:53;;;;;;;10.35;5.78;;;;;;;5.58;91.24;101848.81;4949422;29;20059;-52
2022/12/02 07:52:19;;;;;;;11.13;6.68;;;;;;;5.59;91.12;101847.72;4949114;28;20043;-47
2022/12/02 07:54:46;;;;;;;9.10;5.55;;;;;;;5.58;90.97;101848.81;4948494;29;20118;-47
2022/12/02 07:57:13;;;;;;;11.02;6.78;;;;;;;5.56;91.13;101851.84;4947386;29;20050;-49
2022/12/02 07:59:39;;;;;;;9.80;5.38;;;;;;;5.54;91.24;101848.56;4950309;29;20505;-53
2022/12/02 08:02:06;;;;;;;12.15;5.95;;;;;;;5.54;91.29;101860.38;4950283;29;20047;-47
2022/12/02 08:04:34;;;;;;;11.25;6.90;;;;;;;5.54;91.31;101854.88;4951011;29;20130;-52
2022/12/02 08:07:01;;;;;;;9.77;5.70;;;;;;;5.54;91.31;101859.53;4950629;28;20141;-47
2022/12/02 08:09:28;;;;;;;14.15;6.15;;;;;;;5.56;91.44;101862.81;4950623;28;20520;-48
2022/12/02 08:11:55;;;;;;;7.75;5.18;;;;;;;5.57;91.27;101858.97;4950029;28;20553;-45
2022/12/02 08:14:21;;;;;;;12.68;6.80;;;;;;;5.57;91.51;101858.97;4937864;28;20485;-45
2022/12/02 08:16:48;;;;;;;10.13;5.50;;;;;;;5.57;91.24;101863.66;4946006;28;20051;-49
2022/12/02 08:19:15;;;;;;;11.20;7.00;;;;;;;5.58;91.58;101866.13;4948502;29;20509;-45
2022/12/02 08:21:42;;;;;;;11.90;5.97;;;;;;;5.58;91.28;101866.13;4940113;29;20047;-47
2022/12/02 08:24:09;;;;;;;10.10;5.13;;;;;;;5.62;91.51;101871.84;4949923;28;20126;-47
2022/12/02 08:26:36;;;;;;;12.15;7.63;;;;;;;5.64;91.46;101870.47;4950280;29;20054;-47
2022/12/02 08:29:03;;;;;;;12.77;6.25;;;;;;;5.69;91.56;101872.38;4950715;29;20058;-45
2022/12/02 08:31:29;;;;;;;12.07;5.95;;;;;;;5.72;91.55;101878.09;4950581;29;20054;-45
2022/12/02 08:33:56;;;;;;;12.00;5.60;;;;;;;5.74;91.61;101875.09;4941507;29;20256;-46
2022/12/02 08:36:27;;;;;;;9.40;6.03;;;;;;;5.75;91.60;101876.72;4948997;29;20079;-46
2022/12/02 08:38:54;;;;;;;16.27;5.80;;;;;;;5.78;91.69;101878.88;4950515;29;20047;-46
2022/12/02 08:41:21;;;;;;;7.63;4.95;;;;;;;5.81;91.66;101870.06;4948008;29;20050;-47
2022/12/02 08:43:47;;;;;;;10.43;5.85;;;;;;;5.83;91.80;101884.34;4946455;28;20035;-50
2022/12/02 08:46:14;;;;;;;11.75;5.88;;;;;;;5.89;92.07;101883.25;4947988;28;20039;-50
2022/12/02 08:48:41;;;;;;;13.55;6.53;;;;;;;5.95;91.91;101887.59;4950382;29;20098;-48
2022/12/02 08:51:09;;;;;;;11.35;6.05;;;;;;;5.98;91.86;101882.34;4939158;28;20042;-45
2022/12/02 08:53:36;;;;;;;11.20;6.03;;;;;;;6.02;91.91;101893.59;4943859;28;20497;-47
2022/12/02 08:56:02;;;;;;;12.75;5.80;;;;;;;6.04;92.16;101891.38;4947000;29;20052;-46
2022/12/02 08:58:29;;;;;;;11.30;6.63;;;;;;;6.09;92.13;101900.41;4933044;29;20633;-53
2022/12/02 09:00:56;;;;;;;12.82;6.35;;;;;;;6.14;92.14;101894.84;4949998;28;20110;-47
2022/12/02 09:03:22;;;;;;;11.82;6.18;;;;;;;6.18;92.05;101900.59;4939767;29;20054;-46
2022/12/02 09:05:49;;;;;;;15.48;6.93;;;;;;;6.20;92.04;101898.38;4952906;29;20054;-49
2022/12/02 09:08:16;;;;;;;11.88;6.70;;;;;;;6.21;92.04;101904.72;4954155;29;20054;-46
2022/12/02 09:10:42;;;;;;;11.43;6.97;;;;;;;6.21;92.22;101897.28;4952985;29;20058;-48
2022/12/02 09:13:09;;;;;;;13.32;6.88;;;;;;;6.21;92.19;101907.47;4952942;28;20460;-45
2022/12/02 09:15:36;;;;;;;16.08;8.32;;;;;;;6.21;92.31;101902.78;4954124;29;20137;-45
2022/12/02 09:18:03;;;;;;;9.25;6.45;;;;;;;6.26;92.33;101911.00;4953953;29;20051;-47
2022/12/02 09:20:29;;;;;;;14.85;8.02;;;;;;;6.30;92.53;101912.03;4952913;29;20106;-46
2022/12/02 09:22:56;;;;;;;15.52;7.72;;;;;;;6.35;92.59;101914.78;4954115;29;20054;-46
2022/12/02 09:25:23;;;;;;;17.08;9.10;;;;;;;6.41;92.37;101913.59;4952457;29;20457;-46
2022/12/02 09:27:49;;;;;;;24.35;11.65;;;;;;;6.46;92.43;101910.78;4953702;29;20039;-45
2022/12/02 09:30:16;;;;;;;22.45;10.10;;;;;;;6.53;92.46;101918.72;4953786;29;20050;-46
2022/12/02 09:32:43;;;;;;;18.75;10.27;;;;;;;6.59;92.60;101912.88;4953944;29;20051;-46
2022/12/02 09:35:10;;;;;;;19.73;10.45;;;;;;;6.67;92.34;101923.25;4953267;29;20126;-46
2022/12/02 09:37:37;;;;;;;16.98;9.55;;;;;;;6.70;92.51;101922.66;4953551;29;20058;-45
2022/12/02 09:40:05;;;;;;;18.20;9.55;;;;;;;6.71;92.53;101916.06;4953474;28;20059;-45
2022/12/02 09:42:32;;;;;;;16.77;9.80;;;;;;;6.70;92.32;101911.66;4953079;28;20047;-46
2022/12/02 09:44:59;;;;;;;22.42;10.85;;;;;;;6.70;92.30;101921.84;4952229;29;20057;-48
2022/12/02 09:47:28;;;;;;;22.02;9.80;;;;;;;6.67;92.45;101915.00;4953315;29;20405;-45
2022/12/02 09:49:55;;;;;;;20.98;8.88;;;;;;;6.65;92.42;101924.66;4953449;29;20057;-46
2022/12/02 09:52:24;;;;;;;17.33;8.88;;;;;;;6.60;92.74;101922.78;4965417;28;20071;-47
2022/12/02 09:54:54;;;;;;;18.75;10.15;;;;;;;6.55;92.42;101931.09;4953656;29;20157;-45
2022/12/02 09:57:26;;;;;;;23.00;10.40;;;;;;;6.51;92.59;101924.50;4953328;29;20054;-47
2022/12/02 09:59:53;;;;;;;19.48;10.65;;;;;;;6.51;92.58;101929.22;4953350;29;20130;-45
2022/12/02 10:02:38;;;;;;;14.50;9.25;;;;;;;6.53;92.98;101929.72;4952776;29;20059;-49
2022/12/02 10:05:18;;;;;;;20.00;10.55;;;;;;;6.59;92.93;101929.38;4941025;29;20125;-45
2022/12/02 10:07:46;;;;;;;17.38;9.43;;;;;;;6.62;92.74;101931.56;4953398;29;20055;-45
2022/12/02 10:10:17;;;;;;;17.13;9.13;;;;;;;6.65;92.60;101941.97;4952325;29;20060;-46
2022/12/02 10:12:43;;;;;;;18.83;8.18;;;;;;;6.73;92.80;101933.09;4952214;28;20043;-45
2022/12/02 10:15:16;;;;;;;21.17;10.25;;;;;;;6.81;92.86;101939.91;4951884;28;20052;-47
2022/12/02 10:17:44;;;;;;;22.27;9.38;;;;;;;6.92;92.81;101941.44;4936628;29;20047;-49
2022/12/02 10:20:23;;;;;;;15.35;8.48;;;;;;;7.02;92.56;101946.00;4952764;29;20043;-47
2022/12/02 10:23:16;;;;;;;16.02;7.13;;;;;;;7.08;92.49;101947.59;4953504;29;20051;-49
2022/12/02 10:25:44;;;;;;;;;;;;;;;7.08;92.44;101940.16;4942997;29;20047;-45
2022/12/02 10:28:37;;;;;;;13.45;7.53;;;;;;;7.07;92.30;101938.50;4952543;29;19926;-45
2022/12/02 10:31:13;;;;;;;12.00;6.13;;;;;;;7.09;92.46;101946.50;4950889;29;20564;-47
2022/12/02 10:33:53;;;;;;;13.82;6.90;;;;;;;7.10;92.66;101953.63;4951148;28;20050;-46
2022/12/02 10:36:36;;;;;;;16.67;7.78;;;;;;;7.17;92.79;101948.59;4952437;29;20051;-48
2022/12/02 10:39:26;;;;;;;18.45;6.70;;;;;;;7.26;92.87;101942.16;4939789;29;20456;-46
2022/12/02 10:42:06;;;;;;;15.32;6.50;;;;;;;7.40;92.67;101946.94;4949049;29;20130;-45
2022/12/02 10:44:41;;;;;;;14.63;5.72;;;;;;;7.51;92.61;101951.22;4944656;29;20055;-45
2022/12/02 10:47:14;;;;;;;11.18;5.25;;;;;;;7.58;92.43;101949.72;4952283;28;20409;-46
2022/12/02 10:50:01;;;;;;;10.30;4.72;;;;;;;7.64;92.42;101940.28;4952726;29;20035;-50
2022/12/02 10:52:34;;;;;;;16.13;6.40;;;;;;;7.69;92.31;101945.72;4956523;28;20505;-48
2022/12/02 10:55:02;;;;;;;13.85;5.22;;;;;;;7.74;92.30;101950.34;4952400;29;20071;-45
2022/12/02 10:57:31;;;;;;;11.40;5.15;;;;;;;7.81;92.47;101954.38;4950766;29;20047;-46
2022/12/02 11:00:03;;;;;;;11.63;4.68;;;;;;;7.88;92.50;101948.50;4952070;28;20047;-45
2022/12/02 11:02:37;;;;;;;14.90;4.72;;;;;;;7.94;92.62;101952.81;4952281;29;20083;-50
2022/12/02 11:05:18;;;;;;;8.45;3.50;;;;;;;8.03;92.51;101950.19;4953344;29;20113;-45
2022/12/02 11:08:24;;;;;;;7.38;3.20;;;;;;;8.10;92.44;101956.97;4952526;29;20400;-45
2022/12/02 11:11:09;;;;;;;9.60;3.72;;;;;;;8.18;92.45;101959.06;4944558;29;20057;-46
2022/12/02 11:13:59;;;;;;;6.25;3.67;;;;;;;8.25;92.26;101948.47;4943425;28;20474;-46
2022/12/02 11:16:26;;;;;;;5.80;3.53;;;;;;;8.33;92.33;101952.53;4951646;29;20516;-45
2022/12/02 11:19:23;;;;;;;7.80;3.63;;;;;;;8.39;92.10;101956.84;4952079;29;20163;-46
2022/12/02 11:21:50;;;;;;;7.45;3.83;;;;;;;8.42;92.21;101956.22;4951813;29;20105;-47
2022/12/02 11:24:34;;;;;;;16.25;5.13;;;;;;;8.45;92.24;101953.69;4952071;29;20051;-46
2022/12/02 11:27:03;;;;;;;9.88;4.32;;;;;;;8.43;92.19;101950.41;4950890;28;20065;-46
2022/12/02 11:29:37;;;;;;;11.00;4.88;;;;;;;8.43;92.36;101944.06;4951369;29;20527;-50
2022/12/02 11:32:17;;;;;;;12.18;4.70;;;;;;;8.42;92.37;101942.41;4951440;29;20054;-47
2022/12/02 11:34:49;;;;;;;10.63;4.32;;;;;;;8.43;92.58;101944.91;4951365;29;20054;-49
2022/12/02 11:37:41;;;;;;;12.43;5.05;;;;;;;8.43;92.57;101938.53;4951421;29;20134;-45
2022/12/02 11:40:12;;;;;;;8.75;4.07;;;;;;;8.45;92.37;101941.81;4951298;29;20047;-49
2022/12/02 11:42:42;;;;;;;11.00;5.10;;;;;;;8.46;92.46;101952.56;4941101;28;20043;-46